sensor_id;sensor_type;location;lat;lon;timestamp;P1;durP1;ratioP1;P2;durP2;ratioP2
3841;SDS011;1936;47.074;15.336;2023-04-03T00:00:48;1.70;;;1.50;;
3841;SDS011;1936;47.074;15.336;2023-04-03T00:02:52;2.35;;;1.73;;
3841;SDS011;1936;47.074;15.336;2023-04-03T00:04:56;4.40;;;1.20;;
3841;SDS011;1936;47.074;15.336;2023-04-03T00:06:59;1.80;;;1.48;;
3841;SDS011;1936;47.074;15.336;2023-04-03T00:09:03;3.67;;;1.65;;
3841;SDS011;1936;47.074;15.336;2023-04-03T00:11:09;1.50;;;1.40;;
3841;SDS011;1936;47.074;15.336;2023-04-03T00:13:13;2.95;;;1.42;;
3841;SDS011;1936;47.074;15.336;2023-04-03T00:15:17;1.35;;;1.25;;
3841;SDS011;1936;47.074;15.336;2023-04-03T00:17:23;2.03;;;1.80;;
3841;SDS011;1936;47.074;15.336;2023-04-03T00:19:26;2.33;;;1.50;;
3841;SDS011;1936;47.074;15.336;2023-04-03T00:21:30;1.92;;;1.73;;
3841;SDS011;1936;47.074;15.336;2023-04-03T00:23:35;1.77;;;1.67;;
3841;SDS011;1936;47.074;15.336;2023-04-03T00:25:39;1.65;;;1.55;;
3841;SDS011;1936;47.074;15.336;2023-04-03T00:27:43;1.50;;;1.30;;
3841;SDS011;1936;47.074;15.336;2023-04-03T00:29:46;3.00;;;1.40;;
3841;SDS011;1936;47.074;15.336;2023-04-03T00:31:50;1.42;;;1.30;;
3841;SDS011;1936;47.074;15.336;2023-04-03T00:33:56;1.95;;;1.75;;
3841;SDS011;1936;47.074;15.336;2023-04-03T00:35:59;1.80;;;1.70;;
3841;SDS011;1936;47.074;15.336;2023-04-03T00:38:08;1.52;;;1.25;;
3841;SDS011;1936;47.074;15.336;2023-04-03T00:40:13;2.15;;;1.95;;
3841;SDS011;1936;47.074;15.336;2023-04-03T00:42:17;2.55;;;1.40;;
3841;SDS011;1936;47.074;15.336;2023-04-03T00:44:21;1.40;;;1.30;;
3841;SDS011;1936;47.074;15.336;2023-04-03T00:46:25;2.63;;;1.60;;
3841;SDS011;1936;47.074;15.336;2023-04-03T00:48:30;1.88;;;1.65;;
3841;SDS011;1936;47.074;15.336;2023-04-03T00:50:37;2.28;;;2.08;;
3841;SDS011;1936;47.074;15.336;2023-04-03T00:52:41;1.58;;;1.23;;
3841;SDS011;1936;47.074;15.336;2023-04-03T00:54:48;3.45;;;1.70;;
3841;SDS011;1936;47.074;15.336;2023-04-03T00:56:52;2.25;;;1.52;;
3841;SDS011;1936;47.074;15.336;2023-04-03T00:58:58;1.77;;;1.67;;
3841;SDS011;1936;47.074;15.336;2023-04-03T01:01:03;1.90;;;1.55;;
3841;SDS011;1936;47.074;15.336;2023-04-03T01:03:08;1.50;;;1.38;;
3841;SDS011;1936;47.074;15.336;2023-04-03T01:05:12;2.05;;;1.85;;
3841;SDS011;1936;47.074;15.336;2023-04-03T01:07:18;2.38;;;1.52;;
3841;SDS011;1936;47.074;15.336;2023-04-03T01:09:23;2.13;;;1.85;;
3841;SDS011;1936;47.074;15.336;2023-04-03T01:11:26;2.00;;;1.80;;
3841;SDS011;1936;47.074;15.336;2023-04-03T01:13:31;2.10;;;1.70;;
3841;SDS011;1936;47.074;15.336;2023-04-03T01:15:35;2.00;;;1.48;;
3841;SDS011;1936;47.074;15.336;2023-04-03T01:17:40;2.17;;;1.95;;
3841;SDS011;1936;47.074;15.336;2023-04-03T01:19:43;2.25;;;2.05;;
3841;SDS011;1936;47.074;15.336;2023-04-03T01:24:22;1.80;;;1.70;;
3841;SDS011;1936;47.074;15.336;2023-04-03T01:26:28;2.13;;;1.65;;
3841;SDS011;1936;47.074;15.336;2023-04-03T01:28:33;1.60;;;1.30;;
3841;SDS011;1936;47.074;15.336;2023-04-03T01:30:39;1.98;;;1.80;;
3841;SDS011;1936;47.074;15.336;2023-04-03T01:32:46;1.77;;;1.67;;
3841;SDS011;1936;47.074;15.336;2023-04-03T01:34:49;2.30;;;2.00;;
3841;SDS011;1936;47.074;15.336;2023-04-03T01:36:53;2.17;;;1.98;;
3841;SDS011;1936;47.074;15.336;2023-04-03T01:38:57;2.75;;;2.15;;
3841;SDS011;1936;47.074;15.336;2023-04-03T01:41:01;3.05;;;1.70;;
3841;SDS011;1936;47.074;15.336;2023-04-03T01:43:05;1.60;;;1.50;;
3841;SDS011;1936;47.074;15.336;2023-04-03T01:45:09;2.08;;;1.88;;
3841;SDS011;1936;47.074;15.336;2023-04-03T01:47:13;2.03;;;1.40;;
3841;SDS011;1936;47.074;15.336;2023-04-03T01:49:18;2.00;;;1.80;;
3841;SDS011;1936;47.074;15.336;2023-04-03T01:51:21;3.65;;;2.10;;
3841;SDS011;1936;47.074;15.336;2023-04-03T01:53:25;1.98;;;1.77;;
3841;SDS011;1936;47.074;15.336;2023-04-03T01:55:29;1.65;;;1.55;;
3841;SDS011;1936;47.074;15.336;2023-04-03T01:57:33;1.88;;;1.77;;
3841;SDS011;1936;47.074;15.336;2023-04-03T01:59:37;1.58;;;1.48;;
3841;SDS011;1936;47.074;15.336;2023-04-03T02:01:40;1.95;;;1.75;;
3841;SDS011;1936;47.074;15.336;2023-04-03T02:03:44;2.20;;;2.00;;
3841;SDS011;1936;47.074;15.336;2023-04-03T02:05:50;2.35;;;1.83;;
3841;SDS011;1936;47.074;15.336;2023-04-03T02:07:54;1.70;;;1.60;;
3841;SDS011;1936;47.074;15.336;2023-04-03T02:09:58;1.65;;;1.55;;
3841;SDS011;1936;47.074;15.336;2023-04-03T02:12:01;2.22;;;1.33;;
3841;SDS011;1936;47.074;15.336;2023-04-03T02:14:05;2.10;;;1.48;;
3841;SDS011;1936;47.074;15.336;2023-04-03T02:16:09;1.73;;;1.63;;
3841;SDS011;1936;47.074;15.336;2023-04-03T02:18:14;2.28;;;1.42;;
3841;SDS011;1936;47.074;15.336;2023-04-03T02:20:18;2.13;;;1.27;;
3841;SDS011;1936;47.074;15.336;2023-04-03T02:22:23;1.75;;;1.63;;
3841;SDS011;1936;47.074;15.336;2023-04-03T02:24:27;1.50;;;1.38;;
3841;SDS011;1936;47.074;15.336;2023-04-03T02:26:31;3.25;;;1.80;;
3841;SDS011;1936;47.074;15.336;2023-04-03T02:28:34;2.30;;;1.63;;
3841;SDS011;1936;47.074;15.336;2023-04-03T02:30:38;3.05;;;1.92;;
3841;SDS011;1936;47.074;15.336;2023-04-03T02:32:42;2.20;;;2.00;;
3841;SDS011;1936;47.074;15.336;2023-04-03T02:34:46;1.77;;;1.50;;
3841;SDS011;1936;47.074;15.336;2023-04-03T02:36:50;1.85;;;1.75;;
3841;SDS011;1936;47.074;15.336;2023-04-03T02:38:55;2.55;;;1.70;;
3841;SDS011;1936;47.074;15.336;2023-04-03T02:40:59;2.17;;;1.38;;
3841;SDS011;1936;47.074;15.336;2023-04-03T02:43:03;1.58;;;1.48;;
3841;SDS011;1936;47.074;15.336;2023-04-03T02:45:07;1.80;;;1.70;;
3841;SDS011;1936;47.074;15.336;2023-04-03T02:47:11;1.98;;;1.70;;
3841;SDS011;1936;47.074;15.336;2023-04-03T02:49:15;1.75;;;1.27;;
3841;SDS011;1936;47.074;15.336;2023-04-03T02:51:19;1.63;;;1.25;;
3841;SDS011;1936;47.074;15.336;2023-04-03T02:53:22;1.98;;;1.60;;
3841;SDS011;1936;47.074;15.336;2023-04-03T02:55:28;6.68;;;1.65;;
3841;SDS011;1936;47.074;15.336;2023-04-03T02:57:31;10.73;;;1.98;;
3841;SDS011;1936;47.074;15.336;2023-04-03T02:59:35;1.63;;;1.40;;
3841;SDS011;1936;47.074;15.336;2023-04-03T03:01:41;1.13;;;1.02;;
3841;SDS011;1936;47.074;15.336;2023-04-03T03:03:45;2.42;;;1.73;;
3841;SDS011;1936;47.074;15.336;2023-04-03T03:05:49;2.65;;;1.70;;
3841;SDS011;1936;47.074;15.336;2023-04-03T03:07:53;3.85;;;1.52;;
3841;SDS011;1936;47.074;15.336;2023-04-03T03:09:56;1.38;;;1.27;;
3841;SDS011;1936;47.074;15.336;2023-04-03T03:12:02;2.35;;;1.60;;
3841;SDS011;1936;47.074;15.336;2023-04-03T03:14:06;2.10;;;1.73;;
3841;SDS011;1936;47.074;15.336;2023-04-03T03:16:09;1.17;;;1.02;;
3841;SDS011;1936;47.074;15.336;2023-04-03T03:18:13;1.40;;;1.30;;
3841;SDS011;1936;47.074;15.336;2023-04-03T03:20:17;1.70;;;1.50;;
3841;SDS011;1936;47.074;15.336;2023-04-03T03:22:21;1.58;;;1.45;;
3841;SDS011;1936;47.074;15.336;2023-04-03T03:24:24;1.85;;;1.45;;
3841;SDS011;1936;47.074;15.336;2023-04-03T03:26:28;2.15;;;1.60;;
3841;SDS011;1936;47.074;15.336;2023-04-03T03:28:33;2.00;;;1.80;;
3841;SDS011;1936;47.074;15.336;2023-04-03T03:30:38;1.35;;;1.20;;
3841;SDS011;1936;47.074;15.336;2023-04-03T03:32:41;1.42;;;1.30;;
3841;SDS011;1936;47.074;15.336;2023-04-03T03:34:46;1.73;;;1.30;;
3841;SDS011;1936;47.074;15.336;2023-04-03T03:36:49;1.25;;;1.13;;
3841;SDS011;1936;47.074;15.336;2023-04-03T03:38:53;2.10;;;1.90;;
3841;SDS011;1936;47.074;15.336;2023-04-03T03:40:57;2.97;;;1.20;;
3841;SDS011;1936;47.074;15.336;2023-04-03T03:43:01;1.70;;;1.50;;
3841;SDS011;1936;47.074;15.336;2023-04-03T03:45:07;1.88;;;1.65;;
3841;SDS011;1936;47.074;15.336;2023-04-03T03:47:10;1.55;;;1.30;;
3841;SDS011;1936;47.074;15.336;2023-04-03T03:49:14;1.67;;;1.58;;
3841;SDS011;1936;47.074;15.336;2023-04-03T03:51:18;1.60;;;1.17;;
3841;SDS011;1936;47.074;15.336;2023-04-03T03:53:22;1.77;;;1.30;;
3841;SDS011;1936;47.074;15.336;2023-04-03T03:55:26;1.30;;;0.95;;
3841;SDS011;1936;47.074;15.336;2023-04-03T03:57:29;1.70;;;1.60;;
3841;SDS011;1936;47.074;15.336;2023-04-03T03:59:33;1.20;;;1.10;;
3841;SDS011;1936;47.074;15.336;2023-04-03T04:01:39;1.90;;;1.23;;
3841;SDS011;1936;47.074;15.336;2023-04-03T04:03:42;2.15;;;1.52;;
3841;SDS011;1936;47.074;15.336;2023-04-03T04:05:47;1.88;;;1.60;;
3841;SDS011;1936;47.074;15.336;2023-04-03T04:07:50;1.40;;;1.20;;
3841;SDS011;1936;47.074;15.336;2023-04-03T04:09:54;1.40;;;1.00;;
3841;SDS011;1936;47.074;15.336;2023-04-03T04:11:58;1.05;;;0.85;;
3841;SDS011;1936;47.074;15.336;2023-04-03T04:14:02;1.33;;;1.08;;
3841;SDS011;1936;47.074;15.336;2023-04-03T04:16:06;1.40;;;1.25;;
3841;SDS011;1936;47.074;15.336;2023-04-03T04:18:12;3.03;;;1.65;;
3841;SDS011;1936;47.074;15.336;2023-04-03T04:20:16;1.92;;;1.40;;
3841;SDS011;1936;47.074;15.336;2023-04-03T04:22:20;0.88;;;0.88;;
3841;SDS011;1936;47.074;15.336;2023-04-03T04:24:24;1.58;;;1.48;;
3841;SDS011;1936;47.074;15.336;2023-04-03T04:26:27;1.85;;;1.27;;
3841;SDS011;1936;47.074;15.336;2023-04-03T04:28:31;1.20;;;1.10;;
3841;SDS011;1936;47.074;15.336;2023-04-03T04:30:35;1.50;;;1.40;;
3841;SDS011;1936;47.074;15.336;2023-04-03T04:32:39;2.20;;;1.35;;
3841;SDS011;1936;47.074;15.336;2023-04-03T04:34:44;1.35;;;0.85;;
3841;SDS011;1936;47.074;15.336;2023-04-03T04:36:48;1.02;;;0.93;;
3841;SDS011;1936;47.074;15.336;2023-04-03T04:38:52;1.05;;;0.88;;
3841;SDS011;1936;47.074;15.336;2023-04-03T04:40:56;1.75;;;1.40;;
3841;SDS011;1936;47.074;15.336;2023-04-03T04:43:00;1.65;;;1.35;;
3841;SDS011;1936;47.074;15.336;2023-04-03T04:45:04;1.40;;;1.30;;
3841;SDS011;1936;47.074;15.336;2023-04-03T04:47:08;1.17;;;1.08;;
3841;SDS011;1936;47.074;15.336;2023-04-03T04:49:12;1.45;;;1.20;;
3841;SDS011;1936;47.074;15.336;2023-04-03T04:51:18;1.70;;;1.40;;
3841;SDS011;1936;47.074;15.336;2023-04-03T04:53:22;1.20;;;0.93;;
3841;SDS011;1936;47.074;15.336;2023-04-03T04:55:26;1.05;;;0.95;;
3841;SDS011;1936;47.074;15.336;2023-04-03T04:57:29;1.05;;;0.95;;
3841;SDS011;1936;47.074;15.336;2023-04-03T04:59:33;2.92;;;1.50;;
3841;SDS011;1936;47.074;15.336;2023-04-03T05:01:37;1.33;;;1.08;;
3841;SDS011;1936;47.074;15.336;2023-04-03T05:03:41;1.00;;;0.80;;
3841;SDS011;1936;47.074;15.336;2023-04-03T05:05:45;1.23;;;1.13;;
3841;SDS011;1936;47.074;15.336;2023-04-03T05:07:50;1.00;;;0.73;;
3841;SDS011;1936;47.074;15.336;2023-04-03T05:09:54;1.50;;;1.35;;
3841;SDS011;1936;47.074;15.336;2023-04-03T05:11:58;1.55;;;0.93;;
3841;SDS011;1936;47.074;15.336;2023-04-03T05:14:02;1.02;;;0.90;;
3841;SDS011;1936;47.074;15.336;2023-04-03T05:16:08;5.03;;;1.00;;
3841;SDS011;1936;47.074;15.336;2023-04-03T05:18:12;2.40;;;1.02;;
3841;SDS011;1936;47.074;15.336;2023-04-03T05:20:16;1.35;;;1.02;;
3841;SDS011;1936;47.074;15.336;2023-04-03T05:22:20;0.80;;;0.70;;
3841;SDS011;1936;47.074;15.336;2023-04-03T05:24:25;1.77;;;1.15;;
3841;SDS011;1936;47.074;15.336;2023-04-03T05:26:29;1.92;;;1.00;;
3841;SDS011;1936;47.074;15.336;2023-04-03T05:28:33;1.77;;;0.98;;
3841;SDS011;1936;47.074;15.336;2023-04-03T05:30:37;1.10;;;0.98;;
3841;SDS011;1936;47.074;15.336;2023-04-03T05:32:40;2.20;;;1.20;;
3841;SDS011;1936;47.074;15.336;2023-04-03T05:34:44;1.23;;;1.13;;
3841;SDS011;1936;47.074;15.336;2023-04-03T05:36:48;2.20;;;1.65;;
3841;SDS011;1936;47.074;15.336;2023-04-03T05:38:52;4.13;;;0.90;;
3841;SDS011;1936;47.074;15.336;2023-04-03T05:40:59;1.60;;;1.23;;
3841;SDS011;1936;47.074;15.336;2023-04-03T05:43:03;1.23;;;0.93;;
3841;SDS011;1936;47.074;15.336;2023-04-03T05:45:07;1.15;;;0.82;;
3841;SDS011;1936;47.074;15.336;2023-04-03T05:47:10;1.27;;;1.10;;
3841;SDS011;1936;47.074;15.336;2023-04-03T05:49:14;2.78;;;1.10;;
3841;SDS011;1936;47.074;15.336;2023-04-03T05:51:18;1.10;;;1.00;;
3841;SDS011;1936;47.074;15.336;2023-04-03T05:53:23;1.08;;;0.85;;
3841;SDS011;1936;47.074;15.336;2023-04-03T05:55:28;2.53;;;1.10;;
3841;SDS011;1936;47.074;15.336;2023-04-03T05:57:34;0.80;;;0.80;;
3841;SDS011;1936;47.074;15.336;2023-04-03T05:59:38;1.42;;;1.17;;
3841;SDS011;1936;47.074;15.336;2023-04-03T06:01:42;1.30;;;1.10;;
3841;SDS011;1936;47.074;15.336;2023-04-03T06:03:46;1.10;;;0.82;;
3841;SDS011;1936;47.074;15.336;2023-04-03T06:05:50;1.90;;;1.00;;
3841;SDS011;1936;47.074;15.336;2023-04-03T06:07:54;1.20;;;1.10;;
3841;SDS011;1936;47.074;15.336;2023-04-03T06:09:58;1.00;;;0.90;;
3841;SDS011;1936;47.074;15.336;2023-04-03T06:12:02;1.50;;;1.08;;
3841;SDS011;1936;47.074;15.336;2023-04-03T06:14:08;1.20;;;0.90;;
3841;SDS011;1936;47.074;15.336;2023-04-03T06:16:12;1.50;;;0.82;;
3841;SDS011;1936;47.074;15.336;2023-04-03T06:18:17;1.20;;;0.80;;
3841;SDS011;1936;47.074;15.336;2023-04-03T06:20:21;1.60;;;0.80;;
3841;SDS011;1936;47.074;15.336;2023-04-03T06:22:25;1.00;;;0.90;;
3841;SDS011;1936;47.074;15.336;2023-04-03T06:24:31;1.45;;;0.93;;
3841;SDS011;1936;47.074;15.336;2023-04-03T06:26:35;0.90;;;0.80;;
3841;SDS011;1936;47.074;15.336;2023-04-03T06:28:38;1.10;;;1.00;;
3841;SDS011;1936;47.074;15.336;2023-04-03T06:30:44;1.10;;;0.90;;
3841;SDS011;1936;47.074;15.336;2023-04-03T06:32:47;1.80;;;1.00;;
3841;SDS011;1936;47.074;15.336;2023-04-03T06:34:52;1.50;;;1.05;;
3841;SDS011;1936;47.074;15.336;2023-04-03T06:36:57;1.58;;;0.85;;
3841;SDS011;1936;47.074;15.336;2023-04-03T06:39:00;1.35;;;1.08;;
3841;SDS011;1936;47.074;15.336;2023-04-03T06:41:04;2.88;;;1.23;;
3841;SDS011;1936;47.074;15.336;2023-04-03T06:43:08;1.77;;;1.02;;
3841;SDS011;1936;47.074;15.336;2023-04-03T06:45:12;3.60;;;1.20;;
3841;SDS011;1936;47.074;15.336;2023-04-03T06:47:17;1.20;;;1.00;;
3841;SDS011;1936;47.074;15.336;2023-04-03T06:49:21;2.20;;;1.00;;
3841;SDS011;1936;47.074;15.336;2023-04-03T06:51:25;2.27;;;1.30;;
3841;SDS011;1936;47.074;15.336;2023-04-03T06:53:29;1.57;;;1.17;;
3841;SDS011;1936;47.074;15.336;2023-04-03T06:55:33;1.30;;;0.87;;
3841;SDS011;1936;47.074;15.336;2023-04-03T06:57:37;1.13;;;1.03;;
3841;SDS011;1936;47.074;15.336;2023-04-03T06:59:41;1.20;;;1.10;;
3841;SDS011;1936;47.074;15.336;2023-04-03T07:01:45;1.67;;;1.40;;
3841;SDS011;1936;47.074;15.336;2023-04-03T07:03:52;1.07;;;0.70;;
3841;SDS011;1936;47.074;15.336;2023-04-03T07:05:56;1.17;;;0.70;;
3841;SDS011;1936;47.074;15.336;2023-04-03T07:08:00;1.20;;;1.00;;
3841;SDS011;1936;47.074;15.336;2023-04-03T07:10:04;2.10;;;1.00;;
3841;SDS011;1936;47.074;15.336;2023-04-03T07:12:08;1.83;;;1.07;;
3841;SDS011;1936;47.074;15.336;2023-04-03T07:14:12;1.10;;;1.00;;
3841;SDS011;1936;47.074;15.336;2023-04-03T07:16:16;1.50;;;1.13;;
3841;SDS011;1936;47.074;15.336;2023-04-03T07:18:20;1.50;;;1.00;;
3841;SDS011;1936;47.074;15.336;2023-04-03T07:20:25;1.20;;;0.80;;
3841;SDS011;1936;47.074;15.336;2023-04-03T07:22:29;1.30;;;0.97;;
3841;SDS011;1936;47.074;15.336;2023-04-03T07:24:33;1.30;;;1.00;;
3841;SDS011;1936;47.074;15.336;2023-04-03T07:26:37;1.53;;;1.17;;
3841;SDS011;1936;47.074;15.336;2023-04-03T07:28:40;1.20;;;0.90;;
3841;SDS011;1936;47.074;15.336;2023-04-03T07:30:46;1.30;;;0.80;;
3841;SDS011;1936;47.074;15.336;2023-04-03T07:32:50;1.20;;;1.10;;
3841;SDS011;1936;47.074;15.336;2023-04-03T07:34:54;2.87;;;1.90;;
3841;SDS011;1936;47.074;15.336;2023-04-03T07:36:59;1.20;;;0.83;;
3841;SDS011;1936;47.074;15.336;2023-04-03T07:39:03;1.47;;;1.17;;
3841;SDS011;1936;47.074;15.336;2023-04-03T07:41:10;1.33;;;0.73;;
3841;SDS011;1936;47.074;15.336;2023-04-03T07:43:16;1.07;;;0.93;;
3841;SDS011;1936;47.074;15.336;2023-04-03T07:45:19;1.37;;;0.70;;
3841;SDS011;1936;47.074;15.336;2023-04-03T07:47:24;1.10;;;0.80;;
3841;SDS011;1936;47.074;15.336;2023-04-03T07:49:27;2.10;;;1.00;;
3841;SDS011;1936;47.074;15.336;2023-04-03T07:51:31;1.13;;;0.83;;
3841;SDS011;1936;47.074;15.336;2023-04-03T07:53:36;2.90;;;0.97;;
3841;SDS011;1936;47.074;15.336;2023-04-03T07:55:40;1.47;;;1.10;;
3841;SDS011;1936;47.074;15.336;2023-04-03T07:57:45;1.37;;;1.07;;
3841;SDS011;1936;47.074;15.336;2023-04-03T07:59:48;1.70;;;1.10;;
3841;SDS011;1936;47.074;15.336;2023-04-03T08:01:52;2.07;;;1.10;;
3841;SDS011;1936;47.074;15.336;2023-04-03T08:03:56;2.63;;;1.00;;
3841;SDS011;1936;47.074;15.336;2023-04-03T08:06:01;4.20;;;0.90;;
3841;SDS011;1936;47.074;15.336;2023-04-03T08:08:08;1.23;;;0.93;;
3841;SDS011;1936;47.074;15.336;2023-04-03T08:10:13;1.20;;;1.07;;
3841;SDS011;1936;47.074;15.336;2023-04-03T08:12:17;1.43;;;0.90;;
3841;SDS011;1936;47.074;15.336;2023-04-03T08:14:21;1.00;;;0.80;;
3841;SDS011;1936;47.074;15.336;2023-04-03T08:16:24;1.67;;;0.73;;
3841;SDS011;1936;47.074;15.336;2023-04-03T08:18:29;0.90;;;0.70;;
3841;SDS011;1936;47.074;15.336;2023-04-03T08:20:33;1.20;;;1.00;;
3841;SDS011;1936;47.074;15.336;2023-04-03T08:22:37;1.07;;;0.80;;
3841;SDS011;1936;47.074;15.336;2023-04-03T08:24:41;1.20;;;0.70;;
3841;SDS011;1936;47.074;15.336;2023-04-03T08:27:00;1.80;;;0.70;;
3841;SDS011;1936;47.074;15.336;2023-04-03T08:29:03;1.07;;;0.67;;
3841;SDS011;1936;47.074;15.336;2023-04-03T08:31:08;1.47;;;1.07;;
3841;SDS011;1936;47.074;15.336;2023-04-03T08:33:12;1.17;;;0.80;;
3841;SDS011;1936;47.074;15.336;2023-04-03T08:35:16;1.13;;;1.00;;
3841;SDS011;1936;47.074;15.336;2023-04-03T08:37:21;1.33;;;1.03;;
3841;SDS011;1936;47.074;15.336;2023-04-03T08:39:25;1.17;;;0.70;;
3841;SDS011;1936;47.074;15.336;2023-04-03T08:41:31;1.50;;;1.17;;
3841;SDS011;1936;47.074;15.336;2023-04-03T08:43:37;1.10;;;1.00;;
3841;SDS011;1936;47.074;15.336;2023-04-03T08:45:43;2.23;;;0.83;;
3841;SDS011;1936;47.074;15.336;2023-04-03T08:47:50;3.00;;;1.30;;
3841;SDS011;1936;47.074;15.336;2023-04-03T08:49:58;0.90;;;0.70;;
3841;SDS011;1936;47.074;15.336;2023-04-03T08:52:04;0.80;;;0.70;;
3841;SDS011;1936;47.074;15.336;2023-04-03T08:54:13;1.47;;;0.60;;
3841;SDS011;1936;47.074;15.336;2023-04-03T08:56:18;1.10;;;0.67;;
3841;SDS011;1936;47.074;15.336;2023-04-03T08:58:24;0.90;;;0.60;;
3841;SDS011;1936;47.074;15.336;2023-04-03T09:00:32;1.77;;;1.00;;
3841;SDS011;1936;47.074;15.336;2023-04-03T09:02:40;1.20;;;0.90;;
3841;SDS011;1936;47.074;15.336;2023-04-03T09:04:44;1.20;;;0.87;;
3841;SDS011;1936;47.074;15.336;2023-04-03T09:06:49;1.00;;;0.80;;
3841;SDS011;1936;47.074;15.336;2023-04-03T09:08:58;1.30;;;1.00;;
3841;SDS011;1936;47.074;15.336;2023-04-03T09:11:07;1.27;;;0.80;;
3841;SDS011;1936;47.074;15.336;2023-04-03T09:13:13;1.00;;;0.70;;
3841;SDS011;1936;47.074;15.336;2023-04-03T09:15:20;2.37;;;0.80;;
3841;SDS011;1936;47.074;15.336;2023-04-03T09:17:45;1.07;;;0.50;;
3841;SDS011;1936;47.074;15.336;2023-04-03T09:19:54;2.43;;;1.07;;
3841;SDS011;1936;47.074;15.336;2023-04-03T09:22:03;1.83;;;0.80;;
3841;SDS011;1936;47.074;15.336;2023-04-03T09:24:08;3.20;;;1.00;;
3841;SDS011;1936;47.074;15.336;2023-04-03T09:26:13;1.00;;;0.80;;
3841;SDS011;1936;47.074;15.336;2023-04-03T09:28:17;1.10;;;0.87;;
3841;SDS011;1936;47.074;15.336;2023-04-03T09:30:22;1.93;;;1.20;;
3841;SDS011;1936;47.074;15.336;2023-04-03T09:32:28;1.23;;;0.70;;
3841;SDS011;1936;47.074;15.336;2023-04-03T09:34:35;1.30;;;0.97;;
3841;SDS011;1936;47.074;15.336;2023-04-03T09:36:42;1.00;;;0.70;;
3841;SDS011;1936;47.074;15.336;2023-04-03T09:38:50;1.70;;;0.97;;
3841;SDS011;1936;47.074;15.336;2023-04-03T09:41:06;2.37;;;1.00;;
3841;SDS011;1936;47.074;15.336;2023-04-03T09:43:22;1.40;;;0.83;;
3841;SDS011;1936;47.074;15.336;2023-04-03T09:45:27;0.90;;;0.60;;
3841;SDS011;1936;47.074;15.336;2023-04-03T09:47:32;1.40;;;0.90;;
3841;SDS011;1936;47.074;15.336;2023-04-03T09:49:38;2.03;;;1.33;;
3841;SDS011;1936;47.074;15.336;2023-04-03T09:51:41;1.50;;;1.10;;
3841;SDS011;1936;47.074;15.336;2023-04-03T09:53:46;1.30;;;0.80;;
3841;SDS011;1936;47.074;15.336;2023-04-03T09:55:50;1.50;;;0.80;;
3841;SDS011;1936;47.074;15.336;2023-04-03T09:57:54;1.00;;;0.80;;
3841;SDS011;1936;47.074;15.336;2023-04-03T09:59:59;1.33;;;0.80;;
3841;SDS011;1936;47.074;15.336;2023-04-03T10:02:18;1.70;;;1.17;;
3841;SDS011;1936;47.074;15.336;2023-04-03T10:04:25;1.40;;;0.90;;
3841;SDS011;1936;47.074;15.336;2023-04-03T10:06:31;1.60;;;0.97;;
3841;SDS011;1936;47.074;15.336;2023-04-03T10:08:36;1.20;;;0.80;;
3841;SDS011;1936;47.074;15.336;2023-04-03T10:10:41;1.33;;;0.73;;
3841;SDS011;1936;47.074;15.336;2023-04-03T10:12:46;1.07;;;0.93;;
3841;SDS011;1936;47.074;15.336;2023-04-03T10:14:54;0.90;;;0.70;;
3841;SDS011;1936;47.074;15.336;2023-04-03T10:16:59;3.93;;;0.90;;
3841;SDS011;1936;47.074;15.336;2023-04-03T10:19:15;1.57;;;1.17;;
3841;SDS011;1936;47.074;15.336;2023-04-03T10:21:31;1.30;;;0.80;;
3841;SDS011;1936;47.074;15.336;2023-04-03T10:23:38;1.80;;;0.80;;
3841;SDS011;1936;47.074;15.336;2023-04-03T10:25:46;1.30;;;1.03;;
3841;SDS011;1936;47.074;15.336;2023-04-03T10:27:53;1.87;;;1.17;;
3841;SDS011;1936;47.074;15.336;2023-04-03T10:29:59;1.23;;;0.90;;
3841;SDS011;1936;47.074;15.336;2023-04-03T10:32:10;1.23;;;1.10;;
3841;SDS011;1936;47.074;15.336;2023-04-03T10:34:19;3.63;;;0.77;;
3841;SDS011;1936;47.074;15.336;2023-04-03T10:36:27;1.63;;;1.07;;
3841;SDS011;1936;47.074;15.336;2023-04-03T10:38:39;1.10;;;0.73;;
3841;SDS011;1936;47.074;15.336;2023-04-03T10:40:47;1.57;;;0.90;;
3841;SDS011;1936;47.074;15.336;2023-04-03T10:42:53;1.33;;;0.90;;
3841;SDS011;1936;47.074;15.336;2023-04-03T10:45:10;1.10;;;0.60;;
3841;SDS011;1936;47.074;15.336;2023-04-03T10:47:20;1.00;;;0.80;;
3841;SDS011;1936;47.074;15.336;2023-04-03T10:49:30;0.90;;;0.60;;
3841;SDS011;1936;47.074;15.336;2023-04-03T10:51:41;1.30;;;0.90;;
3841;SDS011;1936;47.074;15.336;2023-04-03T10:53:49;1.13;;;0.83;;
3841;SDS011;1936;47.074;15.336;2023-04-03T10:55:57;1.47;;;1.20;;
3841;SDS011;1936;47.074;15.336;2023-04-03T10:58:03;1.20;;;0.83;;
3841;SDS011;1936;47.074;15.336;2023-04-03T11:00:13;5.90;;;0.90;;
3841;SDS011;1936;47.074;15.336;2023-04-03T11:02:22;0.93;;;0.77;;
3841;SDS011;1936;47.074;15.336;2023-04-03T11:04:31;1.53;;;1.10;;
3841;SDS011;1936;47.074;15.336;2023-04-03T11:06:39;1.47;;;0.93;;
3841;SDS011;1936;47.074;15.336;2023-04-03T11:08:45;1.13;;;0.80;;
3841;SDS011;1936;47.074;15.336;2023-04-03T11:10:54;1.07;;;0.83;;
3841;SDS011;1936;47.074;15.336;2023-04-03T11:12:59;1.13;;;0.80;;
3841;SDS011;1936;47.074;15.336;2023-04-03T11:15:10;1.67;;;1.20;;
3841;SDS011;1936;47.074;15.336;2023-04-03T11:17:26;1.60;;;0.93;;
3841;SDS011;1936;47.074;15.336;2023-04-03T11:19:34;2.03;;;1.20;;
3841;SDS011;1936;47.074;15.336;2023-04-03T11:21:39;1.50;;;1.40;;
3841;SDS011;1936;47.074;15.336;2023-04-03T11:23:44;1.37;;;0.90;;
3841;SDS011;1936;47.074;15.336;2023-04-03T11:25:51;1.20;;;0.80;;
3841;SDS011;1936;47.074;15.336;2023-04-03T11:27:58;0.97;;;0.70;;
3841;SDS011;1936;47.074;15.336;2023-04-03T11:30:05;1.30;;;0.80;;
3841;SDS011;1936;47.074;15.336;2023-04-03T11:32:13;1.33;;;0.90;;
3841;SDS011;1936;47.074;15.336;2023-04-03T11:34:23;1.43;;;0.80;;
3841;SDS011;1936;47.074;15.336;2023-04-03T11:36:29;1.00;;;0.70;;
3841;SDS011;1936;47.074;15.336;2023-04-03T11:38:36;0.90;;;0.80;;
3841;SDS011;1936;47.074;15.336;2023-04-03T11:40:42;1.90;;;0.90;;
3841;SDS011;1936;47.074;15.336;2023-04-03T11:42:47;1.50;;;1.00;;
3841;SDS011;1936;47.074;15.336;2023-04-03T11:44:55;1.43;;;0.87;;
3841;SDS011;1936;47.074;15.336;2023-04-03T11:49:50;1.23;;;0.77;;
3841;SDS011;1936;47.074;15.336;2023-04-03T11:51:54;2.33;;;1.10;;
3841;SDS011;1936;47.074;15.336;2023-04-03T11:54:04;1.63;;;0.80;;
3841;SDS011;1936;47.074;15.336;2023-04-03T11:56:35;3.57;;;0.80;;
3841;SDS011;1936;47.074;15.336;2023-04-03T11:58:39;2.20;;;1.07;;
3841;SDS011;1936;47.074;15.336;2023-04-03T12:00:48;1.33;;;0.90;;
3841;SDS011;1936;47.074;15.336;2023-04-03T12:02:52;1.03;;;0.80;;
3841;SDS011;1936;47.074;15.336;2023-04-03T12:07:19;1.17;;;0.60;;
3841;SDS011;1936;47.074;15.336;2023-04-03T12:09:33;1.00;;;0.80;;
3841;SDS011;1936;47.074;15.336;2023-04-03T12:11:37;1.33;;;0.97;;
3841;SDS011;1936;47.074;15.336;2023-04-03T12:13:41;1.33;;;1.00;;
3841;SDS011;1936;47.074;15.336;2023-04-03T12:15:51;1.20;;;0.90;;
3841;SDS011;1936;47.074;15.336;2023-04-03T12:17:55;2.57;;;0.73;;
3841;SDS011;1936;47.074;15.336;2023-04-03T12:19:59;1.27;;;0.80;;
3841;SDS011;1936;47.074;15.336;2023-04-03T12:22:05;1.70;;;1.00;;
3841;SDS011;1936;47.074;15.336;2023-04-03T12:24:23;1.47;;;1.00;;
3841;SDS011;1936;47.074;15.336;2023-04-03T12:26:28;5.30;;;0.87;;
3841;SDS011;1936;47.074;15.336;2023-04-03T12:28:49;1.10;;;1.00;;
3841;SDS011;1936;47.074;15.336;2023-04-03T12:30:56;1.43;;;1.00;;
3841;SDS011;1936;47.074;15.336;2023-04-03T12:33:10;1.57;;;1.30;;
3841;SDS011;1936;47.074;15.336;2023-04-03T12:35:19;2.50;;;1.40;;
3841;SDS011;1936;47.074;15.336;2023-04-03T12:37:29;2.17;;;1.40;;
3841;SDS011;1936;47.074;15.336;2023-04-03T12:39:47;3.03;;;1.10;;
3841;SDS011;1936;47.074;15.336;2023-04-03T12:41:53;1.20;;;1.07;;
3841;SDS011;1936;47.074;15.336;2023-04-03T12:44:04;1.40;;;0.97;;
3841;SDS011;1936;47.074;15.336;2023-04-03T12:46:13;1.77;;;0.80;;
3841;SDS011;1936;47.074;15.336;2023-04-03T12:48:21;1.10;;;0.70;;
3841;SDS011;1936;47.074;15.336;2023-04-03T12:50:27;2.03;;;1.00;;
3841;SDS011;1936;47.074;15.336;2023-04-03T12:52:33;1.50;;;0.90;;
3841;SDS011;1936;47.074;15.336;2023-04-03T12:54:38;1.10;;;0.73;;